Odessa, Texas
Current Conditions -  °F | °C
As of 8:08 AM on Friday 24 Oct 2014 (Local Time) from KODO Reporting Station
Haze Haze  
Wind Chill: 59°   Ceiling: Unl
Heat Index: 59°   Visibility: 1.7mi
Dew Point: 57°   Wind: 6mph
Humidity: 93%   Direction: 190°S
Pressure: 30.17"   Gusts: NA
Location:  31.85°N, 102.37°W
Report Text: KODO 241308Z AUTO 19005KT 1 3/4SM BR CLR 15/14 A3017 RMK AO2 T01500139
Loading
Personal Weather Stations






























Interactive Weather Map
Tropical Storm Tracking
New forecast layout! Learn more

10-Day Weather Forecast

Advertisements
Track Severe Weather on mobile